Bookmark and Share
Track history (hours):
 

Andrew J. Barberi

More information available from US FCC via Universal Licensing System and Coast Guard Vessel Documentation Center.

Last reported at 2014-Apr-20 04:33 UTC. Time now 2014-Apr-20 05:43 UTC.
Position N 40°39' W 074°04'.

Length 94 m; draft 4.3 m.

Type: Ship. MMSI: 367000150.

NotesDate/timePositionNaut miles runAvg speedWind from/ knotsBaromVisibWave heightAir tempDewpointWater temp
2014-Apr-20 04:33N 40°39' W 074°04'0 0.0
2014-Apr-20 03:33N 40°39' W 074°04'0 0.0
2014-Apr-20 02:33N 40°39' W 074°04'0 0.0
2014-Apr-20 01:33N 40°39' W 074°04'1 1.2
2014-Apr-20 00:33N 40°38' W 074°04'5 4.9
2014-Apr-19 23:33N 40°42' W 074°01'0 0.0
2014-Apr-19 22:34N 40°42' W 074°01'0 0.1
2014-Apr-19 21:33N 40°42' W 074°01'4 3.7
2014-Apr-19 20:25N 40°39' W 074°04'0 0.4
2014-Apr-19 19:34N 40°39' W 074°04'0 0.1
2014-Apr-19 18:34N 40°39' W 074°04'4 3.8
2014-Apr-19 17:33N 40°42' W 074°01'4 3.5
2014-Apr-19 16:23N 40°39' W 074°04'0 0.1
2014-Apr-19 15:33N 40°39' W 074°04'0 0.0
2014-Apr-19 14:34N 40°39' W 074°04'0 0.0
2014-Apr-19 13:32N 40°39' W 074°04'0 0.0
2014-Apr-19 12:32N 40°39' W 074°04'0 0.0
2014-Apr-19 11:32N 40°39' W 074°04'0 0.0
2014-Apr-19 10:32N 40°39' W 074°04'0 0.0
2014-Apr-19 09:32N 40°39' W 074°04'0 0.0
2014-Apr-19 08:32N 40°39' W 074°04'0 0.0
2014-Apr-19 07:32N 40°39' W 074°04'0 0.0
2014-Apr-19 06:32N 40°39' W 074°04'0 0.1
2014-Apr-19 05:32N 40°39' W 074°04'0 0.0
2014-Apr-19 04:34N 40°39' W 074°04'4 4.0
2014-Apr-19 03:33N 40°42' W 074°01'0 0.3
2014-Apr-19 02:21N 40°42' W 074°01'0 0.0
2014-Apr-19 01:22N 40°42' W 074°01'4 2.3
2014-Apr-18 23:33N 40°39' W 074°04'3 3.4
2014-Apr-18 22:34N 40°42' W 074°01'1 0.7
2014-Apr-18 21:33N 40°42' W 074°01'0 0.0
2014-Apr-18 20:34N 40°42' W 074°01'4 4.3
2014-Apr-18 19:33N 40°39' W 074°04'0 0.0
2014-Apr-18 18:33N 40°39' W 074°04'0 0.0
2014-Apr-18 17:33N 40°39' W 074°04'0 0.0
2014-Apr-18 16:33N 40°39' W 074°04'0 0.0
2014-Apr-18 15:33N 40°39' W 074°04'0 0.0
2014-Apr-18 14:33N 40°39' W 074°04'0 0.4
2014-Apr-18 13:34N 40°39' W 074°04'0 0.2
2014-Apr-18 12:34N 40°39' W 074°04'1 0.5
2014-Apr-18 11:33N 40°39' W 074°04'0 0.0
2014-Apr-18 10:24N 40°39' W 074°04'0 0.2
2014-Apr-18 09:33N 40°39' W 074°04'0 0.2
2014-Apr-18 08:33N 40°39' W 074°04'0 0.1
2014-Apr-18 07:33N 40°39' W 074°04'0 0.0
2014-Apr-18 06:29N 40°39' W 074°04'0 0.0
2014-Apr-18 05:32N 40°39' W 074°04'0 0.1
2014-Apr-18 04:33N 40°39' W 074°04'4 4.0
2014-Apr-18 03:34N 40°42' W 074°01'0 0.1
2014-Apr-18 02:33N 40°42' W 074°01'0 0.2
2014-Apr-18 01:33N 40°42' W 074°01'4 3.3
2014-Apr-18 00:21N 40°39' W 074°04'0 0.4
2014-Apr-17 23:33N 40°39' W 074°04'3 3.2
2014-Apr-17 22:34N 40°42' W 074°02'1 0.8
2014-Apr-17 21:33N 40°42' W 074°01'0 0.0
2014-Apr-17 20:34N 40°42' W 074°01'4 4.3
2014-Apr-17 19:33N 40°39' W 074°04'0 0.0
2014-Apr-17 16:34N 40°39' W 074°04'0 0.0
2014-Apr-17 15:34N 40°39' W 074°04'0 0.0
2014-Apr-17 14:34N 40°39' W 074°04'0 0.5
2014-Apr-17 13:34N 40°39' W 074°04'0 0.2
2014-Apr-17 12:34N 40°39' W 074°04'0 0.5
2014-Apr-17 11:33N 40°39' W 074°04'0 0.0
2014-Apr-17 10:33N 40°39' W 074°04'0 0.2
2014-Apr-17 09:34N 40°39' W 074°04'0 0.1
2014-Apr-17 08:33N 40°39' W 074°04'0 0.0
2014-Apr-17 07:33N 40°39' W 074°04'0 0.0
2014-Apr-17 06:31N 40°39' W 074°04'0 0.0
2014-Apr-17 05:31N 40°39' W 074°04'0 0.1
2014-Apr-17 04:33N 40°39' W 074°04'0 0.1
2014-Apr-17 03:33N 40°39' W 074°04'4 4.3
2014-Apr-17 02:33N 40°42' W 074°01'0 0.2
2014-Apr-17 01:34N 40°42' W 074°01'4 3.4
2014-Apr-17 00:22N 40°39' W 074°04'0 0.4
2014-Apr-16 23:34N 40°39' W 074°04'0 0.2
2014-Apr-16 22:07N 40°39' W 074°04'4 2.7
2014-Apr-16 20:34N 40°42' W 074°01'4 1.0
2014-Apr-16 16:18N 40°39' W 074°04'0 0.2
2014-Apr-16 15:33N 40°39' W 074°04'0 0.0
2014-Apr-16 14:34N 40°39' W 074°04'0 0.5
2014-Apr-16 13:33N 40°39' W 074°04'0 0.1
2014-Apr-16 12:33N 40°39' W 074°04'0 0.4
2014-Apr-16 11:33N 40°39' W 074°04'0 0.0
2014-Apr-16 10:33N 40°39' W 074°04'0 0.1
2014-Apr-16 09:33N 40°39' W 074°04'0 0.1
2014-Apr-16 08:33N 40°39' W 074°04'0 0.0
2014-Apr-16 07:14N 40°39' W 074°04'0 0.0
2014-Apr-16 06:32N 40°39' W 074°04'0 0.0
2014-Apr-16 05:32N 40°39' W 074°04'0 0.4
2014-Apr-16 04:33N 40°39' W 074°04'4 3.7
2014-Apr-16 03:34N 40°42' W 074°01'0 0.1
2014-Apr-16 02:34N 40°42' W 074°01'0 0.3
2014-Apr-16 01:34N 40°42' W 074°01'4 3.2
2014-Apr-16 00:22N 40°39' W 074°04'0 0.4
2014-Apr-15 23:33N 40°39' W 074°04'4 3.6
2014-Apr-15 22:33N 40°42' W 074°01'0 0.4
2014-Apr-15 21:33N 40°42' W 074°01'0 0.0
2014-Apr-15 20:22N 40°42' W 074°01'4 2.3
2014-Apr-15 18:34N 40°39' W 074°04'4 4.2
2014-Apr-15 17:33N 40°42' W 074°01'0 0.2
2014-Apr-15 16:34N 40°42' W 074°01'0 0.1
2014-Apr-15 15:34N 40°42' W 074°01'4 4.0
2014-Apr-15 14:33N 40°39' W 074°04'1 0.3
2014-Apr-15 12:34N 40°39' W 074°04'0 0.1
2014-Apr-15 11:34N 40°39' W 074°04'1 0.7
2014-Apr-15 10:34N 40°39' W 074°04'0 0.0
2014-Apr-15 09:34N 40°39' W 074°04'0 0.2
2014-Apr-15 08:34N 40°39' W 074°04'0 0.1
2014-Apr-15 07:34N 40°39' W 074°04'0 0.0
2014-Apr-15 05:31N 40°39' W 074°04'0 0.2
2014-Apr-15 03:34N 40°39' W 074°04'4 3.7
2014-Apr-15 02:34N 40°42' W 074°01'0 0.1
2014-Apr-15 01:34N 40°42' W 074°01'0 0.0
2014-Apr-15 00:34N 40°42' W 074°01'4 1.9
2014-Apr-14 22:34N 40°39' W 074°04'4 3.6
2014-Apr-14 21:34N 40°42' W 074°01'1 0.5
2014-Apr-14 20:34N 40°42' W 074°01'4 1.4
2014-Apr-14 17:34N 40°39' W 074°04'0 0.1
2014-Apr-14 16:34N 40°39' W 074°04'4 4.3
2014-Apr-14 15:34N 40°42' W 074°01'0 0.0
2014-Apr-14 14:34N 40°42' W 074°01'0 0.3
2014-Apr-14 13:34N 40°42' W 074°01'3 1.7
2014-Apr-14 11:34N 40°39' W 074°04'1 0.7
2014-Apr-14 10:34N 40°39' W 074°04'0 0.0
2014-Apr-14 09:33N 40°39' W 074°04'0 0.1
2014-Apr-14 08:33N 40°39' W 074°04'0 0.1
2014-Apr-14 07:33N 40°39' W 074°04'0 0.0
2014-Apr-14 06:31N 40°39' W 074°04'0 0.0
2014-Apr-14 05:31N 40°39' W 074°04'0 0.0
2014-Apr-13 22:33N 40°39' W 074°04'0 0.0
2014-Apr-13 21:33N 40°39' W 074°04'0 0.1
2014-Apr-13 20:33N 40°39' W 074°04'4 3.8
2014-Apr-13 19:27N 40°42' W 074°01'4 4.8
2014-Apr-13 18:33N 40°39' W 074°04'0 0.2
2014-Apr-13 17:34N 40°39' W 074°04'4 4.1
2014-Apr-13 16:34N 40°42' W 074°01'4 3.4
2014-Apr-13 15:19N 40°39' W 074°04'0 0.3
2014-Apr-13 14:33N 40°39' W 074°04'0 0.0
2014-Apr-13 13:33N 40°39' W 074°04'0 0.3
2014-Apr-13 12:33N 40°39' W 074°04'0 0.0
2014-Apr-13 11:33N 40°39' W 074°04'0 0.0
2014-Apr-13 10:31N 40°39' W 074°04'0 0.0
2014-Apr-13 09:28N 40°39' W 074°04'0 0.0
2014-Apr-13 08:31N 40°39' W 074°04'0 0.0
2014-Apr-13 07:31N 40°39' W 074°04'0 0.0
2014-Apr-13 06:31N 40°39' W 074°04'0 0.0
2014-Apr-13 05:31N 40°39' W 074°04'0 0.0
2014-Apr-13 04:31N 40°39' W 074°04'0 0.0
2014-Apr-13 03:31N 40°39' W 074°04'0 0.0
2014-Apr-13 02:32N 40°39' W 074°04'0 0.0
2014-Apr-13 01:31N 40°39' W 074°04'0 0.0
2014-Apr-13 00:31N 40°39' W 074°04'0 0.0
2014-Apr-12 23:31N 40°39' W 074°04'0 0.0
2014-Apr-12 22:31N 40°39' W 074°04'0 0.1
2014-Apr-12 21:33N 40°39' W 074°04'0 0.2
2014-Apr-12 20:33N 40°39' W 074°04'4 3.9
2014-Apr-12 19:30N 40°42' W 074°01'0 0.0
2014-Apr-12 18:27N 40°42' W 074°01'4 4.1
2014-Apr-12 17:24N 40°39' W 074°04'0 0.3
2014-Apr-12 16:34N 40°39' W 074°04'4 4.1
2014-Apr-12 15:33N 40°42' W 074°01'0 0.0
2014-Apr-12 14:33N 40°42' W 074°01'0 0.1
2014-Apr-12 13:34N 40°42' W 074°01'0 0.1
2014-Apr-12 12:34N 40°42' W 074°01'4 4.2
2014-Apr-12 11:34N 40°39' W 074°04'0 0.0
2014-Apr-12 10:33N 40°39' W 074°04'0 0.0
2014-Apr-12 09:28N 40°39' W 074°04'0 0.0
2014-Apr-12 08:31N 40°39' W 074°04'0 0.0
2014-Apr-12 07:31N 40°39' W 074°04'0 0.0
2014-Apr-12 06:31N 40°39' W 074°04'0 0.1
2014-Apr-12 05:31N 40°39' W 074°04'0 0.4
2014-Apr-12 04:34N 40°39' W 074°04'4 3.8
2014-Apr-12 03:34N 40°42' W 074°01'0 0.0
2014-Apr-12 02:34N 40°42' W 074°01'0 0.3
2014-Apr-12 01:33N 40°42' W 074°01'4 3.1
2014-Apr-12 00:21N 40°39' W 074°04'0 0.5
2014-Apr-11 23:33N 40°39' W 074°04'4 3.7
2014-Apr-11 22:33N 40°42' W 074°01'0 0.3
2014-Apr-11 21:31N 40°42' W 074°01'0 0.0
2014-Apr-11 20:33N 40°42' W 074°01'0 0.0
2014-Apr-11 17:33N 40°42' W 074°01'0 0.0
2014-Apr-11 16:33N 40°42' W 074°01'0 0.0
2014-Apr-11 15:33N 40°42' W 074°01'4 2.0
2014-Apr-11 13:34N 40°39' W 074°04'0 0.0
2014-Apr-11 12:34N 40°39' W 074°04'0 0.4
2014-Apr-11 11:33N 40°39' W 074°04'0 0.0
2014-Apr-11 10:25N 40°39' W 074°04'0 0.6
2014-Apr-11 09:34N 40°39' W 074°04'0 0.5
2014-Apr-11 08:34N 40°39' W 074°04'0 0.0
2014-Apr-11 07:33N 40°39' W 074°04'0 0.0
2014-Apr-11 06:33N 40°39' W 074°04'0 0.0
2014-Apr-11 05:33N 40°39' W 074°04'0 0.3
2014-Apr-11 04:34N 40°39' W 074°04'4 3.7
2014-Apr-11 03:33N 40°42' W 074°01'0 0.1
2014-Apr-11 02:34N 40°42' W 074°01'0 0.1
2014-Apr-11 01:34N 40°42' W 074°01'4 3.4
2014-Apr-11 00:21N 40°39' W 074°04'0 0.3
2014-Apr-10 23:34N 40°39' W 074°04'4 3.6
2014-Apr-10 22:33N 40°42' W 074°01'1 0.5
2014-Apr-10 21:31N 40°42' W 074°01'0 0.0
2014-Apr-10 20:30N 40°42' W 074°01'4 1.3
2014-Apr-10 17:09N 40°39' W 074°04'4 7.2
2014-Apr-10 16:33N 40°42' W 074°01'0 0.0
2014-Apr-10 15:33N 40°42' W 074°01'0 0.2
2014-Apr-10 14:34N 40°42' W 074°01'3 3.3
2014-Apr-10 13:33N 40°39' W 074°04'1 0.5
2014-Apr-10 12:33N 40°39' W 074°04'0 0.3
2014-Apr-10 11:33N 40°39' W 074°04'0 0.0
2014-Apr-10 10:33N 40°39' W 074°04'0 0.1
2014-Apr-10 09:33N 40°39' W 074°04'0 0.0
2014-Apr-10 08:34N 40°39' W 074°04'0 0.0
2014-Apr-10 07:21N 40°39' W 074°04'0 0.0
2014-Apr-10 06:32N 40°39' W 074°04'0 0.0
2014-Apr-10 05:32N 40°39' W 074°04'0 0.2
2014-Apr-10 04:33N 40°39' W 074°04'  

Dump ship's entire track history

sailing weather and tide predictions

Andrew J. Barberi — WYR3370 — position and weather